Time;durP1;ratioP1;P1;durP2;ratioP2;P2;SDS_P1;SDS_P2;PMS_P1;PMS_P2;Temp;Humidity;BMP_temperature;BMP_pressure;BME280_temperature;BME280_humidity;BME280_pressure;Samples;Min_cycle;Max_cycle;Signal;HPM_P1;HPM_P2
2021/03/24 00:02:09;;;;;;;75.00;40.87;;;3.80;97.80;;;;;;4418895;32;20219;-64
2021/03/24 00:04:35;;;;;;;72.57;40.77;;;3.80;97.90;;;;;;4411382;32;20171;-66
2021/03/24 00:07:02;;;;;;;70.40;40.27;;;3.80;97.90;;;;;;4418873;32;20186;-64
2021/03/24 00:09:28;;;;;;;76.10;41.17;;;3.80;97.90;;;;;;4407898;32;20618;-67
2021/03/24 00:11:55;;;;;;;77.67;42.47;;;3.70;97.90;;;;;;4411420;32;20566;-64
2021/03/24 00:14:21;;;;;;;69.93;39.20;;;3.70;98.00;;;;;;4418437;32;20212;-66
2021/03/24 00:16:48;;;;;;;77.07;40.97;;;3.70;98.00;;;;;;4416521;32;20216;-64
2021/03/24 00:19:15;;;;;;;74.03;39.37;;;3.70;98.00;;;;;;4418905;32;20216;-64
2021/03/24 00:21:41;;;;;;;84.37;42.37;;;3.70;98.00;;;;;;4416012;32;20177;-64
2021/03/24 00:24:08;;;;;;;71.77;39.67;;;3.60;98.00;;;;;;4417852;32;20178;-64
2021/03/24 00:26:34;;;;;;;74.27;41.97;;;3.60;98.10;;;;;;4407514;32;20187;-63
2021/03/24 00:29:01;;;;;;;72.93;39.63;;;3.60;98.00;;;;;;4413082;32;20599;-64
2021/03/24 00:31:28;;;;;;;79.77;42.17;;;3.60;98.10;;;;;;4406965;32;20212;-68
2021/03/24 00:33:54;;;;;;;76.53;42.43;;;3.60;98.10;;;;;;4413289;32;20549;-64
2021/03/24 00:36:20;;;;;;;75.57;41.37;;;3.50;98.00;;;;;;4409756;32;20208;-65
2021/03/24 00:38:47;;;;;;;76.63;41.57;;;3.50;98.10;;;;;;4417984;32;20216;-65
2021/03/24 00:41:13;;;;;;;77.00;41.10;;;3.50;98.10;;;;;;4418405;32;20291;-67
2021/03/24 00:43:40;;;;;;;76.40;41.30;;;3.40;98.10;;;;;;4415973;32;20159;-68
2021/03/24 00:46:07;;;;;;;74.63;40.63;;;3.40;98.20;;;;;;4412274;32;20159;-64
2021/03/24 00:48:35;;;;;;;76.93;41.90;;;3.40;98.20;;;;;;4414182;32;20290;-68
2021/03/24 00:51:02;;;;;;;79.43;41.00;;;3.40;98.20;;;;;;4414708;32;20543;-64
2021/03/24 00:53:29;;;;;;;81.80;42.87;;;3.40;98.30;;;;;;4410671;32;20187;-67
2021/03/24 00:55:55;;;;;;;72.03;40.57;;;3.40;98.30;;;;;;4416572;32;20215;-64
2021/03/24 00:58:22;;;;;;;83.57;41.40;;;3.30;98.30;;;;;;4412962;32;20164;-67
2021/03/24 01:00:50;;;;;;;78.37;42.60;;;3.30;98.20;;;;;;4417318;32;20204;-66
2021/03/24 01:03:18;;;;;;;74.03;40.17;;;3.30;98.30;;;;;;4414856;32;20523;-68
2021/03/24 01:05:45;;;;;;;75.07;40.57;;;3.30;98.40;;;;;;4408165;32;20234;-67
2021/03/24 01:08:14;;;;;;;77.50;40.37;;;3.20;98.30;;;;;;4405802;32;20164;-66
2021/03/24 01:10:41;;;;;;;72.00;40.23;;;3.20;98.40;;;;;;4409096;32;20620;-68
2021/03/24 01:13:10;;;;;;;74.43;40.07;;;3.20;98.50;;;;;;4415481;32;20591;-66
2021/03/24 01:15:36;;;;;;;73.13;39.63;;;3.20;98.40;;;;;;4419374;32;20211;-65
2021/03/24 01:18:03;;;;;;;72.43;39.67;;;3.20;98.40;;;;;;4420933;32;20282;-64
2021/03/24 01:20:33;;;;;;;78.30;41.07;;;3.20;98.40;;;;;;4416418;32;20174;-69
2021/03/24 01:23:00;;;;;;;76.90;41.13;;;3.10;98.40;;;;;;4415413;32;20259;-67
2021/03/24 01:25:27;;;;;;;77.27;39.70;;;3.10;98.40;;;;;;4418055;32;20645;-65
2021/03/24 01:27:55;;;;;;;83.00;40.53;;;3.10;98.50;;;;;;4418681;32;20457;-63
2021/03/24 01:30:27;;;;;;;74.27;40.83;;;3.10;98.60;;;;;;4420791;32;20605;-64
2021/03/24 01:32:54;;;;;;;80.10;40.33;;;3.10;98.60;;;;;;4419490;32;20218;-67
2021/03/24 01:35:21;;;;;;;78.57;41.00;;;3.00;98.50;;;;;;4406427;32;20204;-66
2021/03/24 01:37:49;;;;;;;75.20;40.33;;;3.00;98.50;;;;;;4418475;32;20182;-64
2021/03/24 01:40:25;;;;;;;71.97;38.43;;;3.00;98.60;;;;;;4416109;32;20721;-64
2021/03/24 01:42:53;;;;;;;75.67;39.37;;;3.00;98.60;;;;;;4416532;32;20627;-65
2021/03/24 01:46:08;;;;;;;78.37;40.13;;;2.90;98.50;;;;;;4406321;32;20321;-66
2021/03/24 01:48:35;;;;;;;72.17;40.07;;;2.90;98.60;;;;;;4411351;32;20195;-64
2021/03/24 01:51:02;;;;;;;76.47;40.40;;;2.90;98.60;;;;;;4414105;32;20211;-65
2021/03/24 01:53:31;;;;;;;71.70;39.53;;;2.90;98.60;;;;;;4410030;32;20172;-66
2021/03/24 01:55:57;;;;;;;74.20;39.50;;;2.90;98.60;;;;;;4413762;32;20182;-68
2021/03/24 01:58:24;;;;;;;72.67;39.30;;;2.90;98.60;;;;;;4411340;32;20272;-64
2021/03/24 02:00:52;;;;;;;84.87;41.47;;;2.80;98.60;;;;;;4409309;32;20212;-67
2021/03/24 02:03:22;;;;;;;79.33;42.83;;;2.80;98.60;;;;;;4416124;32;20169;-69
2021/03/24 02:05:49;;;;;;;84.37;41.83;;;2.80;98.60;;;;;;4422644;32;20591;-67
2021/03/24 02:08:19;;;;;;;76.57;39.40;;;2.80;98.70;;;;;;4417616;32;20554;-63
2021/03/24 02:10:50;;;;;;;69.30;39.43;;;2.70;98.70;;;;;;4420035;32;20219;-64
2021/03/24 02:13:22;;;;;;;79.67;41.00;;;2.70;98.70;;;;;;4414406;32;20182;-64
2021/03/24 02:15:51;;;;;;;76.33;41.63;;;2.70;98.70;;;;;;4413618;32;20182;-64
2021/03/24 02:18:20;;;;;;;77.47;41.63;;;2.70;98.70;;;;;;4408149;32;20160;-66
2021/03/24 02:20:51;;;;;;;82.90;41.87;;;2.70;98.70;;;;;;4416118;32;20631;-68
2021/03/24 02:23:26;;;;;;;84.47;42.80;;;2.70;98.80;;;;;;4414856;32;20190;-66
2021/03/24 02:25:59;;;;;;;76.57;40.50;;;2.70;98.80;;;;;;4411662;32;20445;-62
2021/03/24 02:28:27;;;;;;;79.07;43.03;;;2.70;98.80;;;;;;4410124;32;20235;-63
2021/03/24 02:30:57;;;;;;;87.90;45.00;;;2.70;98.90;;;;;;4406351;32;20175;-66
2021/03/24 02:33:26;;;;;;;87.37;45.03;;;2.70;98.90;;;;;;4409848;32;20152;-64
2021/03/24 02:35:56;;;;;;;93.43;47.50;;;2.70;98.90;;;;;;4407453;32;20211;-63
2021/03/24 02:38:24;;;;;;;88.57;43.90;;;2.70;99.00;;;;;;4406843;32;20300;-65
2021/03/24 02:40:53;;;;;;;85.70;44.63;;;2.70;99.00;;;;;;4419084;32;20178;-65
2021/03/24 02:43:21;;;;;;;93.00;46.87;;;2.70;99.00;;;;;;4405470;32;20171;-64
2021/03/24 02:45:49;;;;;;;93.53;46.60;;;2.70;99.30;;;;;;4413634;32;20223;-63
2021/03/24 02:48:22;;;;;;;95.43;48.50;;;2.60;99.00;;;;;;4406293;32;20218;-64
2021/03/24 02:50:53;;;;;;;88.23;46.07;;;2.70;99.10;;;;;;4417380;32;20183;-65
2021/03/24 02:53:20;;;;;;;95.40;47.27;;;2.70;99.00;;;;;;4413412;32;20176;-64
2021/03/24 02:55:47;;;;;;;92.73;46.67;;;2.80;99.00;;;;;;4414518;32;20172;-63
2021/03/24 02:58:14;;;;;;;99.67;48.63;;;2.70;99.00;;;;;;4419330;32;20163;-65
2021/03/24 03:00:41;;;;;;;95.07;48.13;;;2.70;99.00;;;;;;4412673;32;20640;-62
2021/03/24 03:03:13;;;;;;;92.00;49.23;;;2.70;99.00;;;;;;4418428;32;20194;-62
2021/03/24 03:05:42;;;;;;;96.97;50.10;;;2.70;99.00;;;;;;4413447;32;20173;-64
2021/03/24 03:08:13;;;;;;;93.80;47.80;;;2.70;98.90;;;;;;4417682;32;20160;-64
2021/03/24 03:10:49;;;;;;;91.23;46.30;;;2.70;99.00;;;;;;4412440;32;20219;-63
2021/03/24 03:13:21;;;;;;;86.77;46.43;;;2.60;99.00;;;;;;4415942;32;20282;-63
2021/03/24 03:15:54;;;;;;;92.40;46.53;;;2.60;99.00;;;;;;4415690;32;20159;-64
2021/03/24 03:18:26;;;;;;;96.67;47.23;;;2.60;99.00;;;;;;4409143;32;20180;-64
2021/03/24 03:20:56;;;;;;;89.57;46.10;;;2.60;99.00;;;;;;4416325;32;20220;-63
2021/03/24 03:23:26;;;;;;;93.70;47.67;;;2.60;99.00;;;;;;4413316;32;20165;-63
2021/03/24 03:25:58;;;;;;;94.33;48.20;;;2.50;99.10;;;;;;4406953;32;20190;-63
2021/03/24 03:28:27;;;;;;;92.37;46.30;;;2.50;99.20;;;;;;4415388;32;20203;-63
2021/03/24 03:30:56;;;;;;;87.20;45.43;;;2.50;99.10;;;;;;4407876;32;20167;-63
2021/03/24 03:33:28;;;;;;;97.70;46.30;;;2.50;99.40;;;;;;4410267;32;20226;-63
2021/03/24 03:35:54;;;;;;;91.87;45.43;;;2.50;99.10;;;;;;4417879;32;20194;-63
2021/03/24 03:38:27;;;;;;;87.00;45.77;;;2.40;99.10;;;;;;4418663;32;20183;-63
2021/03/24 03:40:57;;;;;;;81.70;43.97;;;2.40;99.10;;;;;;4417866;32;20250;-64
2021/03/24 03:43:25;;;;;;;89.33;44.37;;;2.40;99.00;;;;;;4411891;32;20194;-64
2021/03/24 03:45:54;;;;;;;88.67;45.13;;;2.40;99.00;;;;;;4413879;32;20218;-64
2021/03/24 03:48:21;;;;;;;82.07;44.53;;;2.40;99.00;;;;;;4410956;32;20235;-64
2021/03/24 03:50:53;;;;;;;87.77;44.20;;;2.30;99.00;;;;;;4410232;32;20220;-64
2021/03/24 03:53:24;;;;;;;93.77;45.90;;;2.30;99.10;;;;;;4408353;32;20272;-63
2021/03/24 03:56:00;;;;;;;93.30;44.50;;;2.30;99.10;;;;;;4416629;32;20203;-63
2021/03/24 03:58:33;;;;;;;95.43;47.07;;;2.30;99.10;;;;;;4414953;32;20216;-63
2021/03/24 04:01:09;;;;;;;91.47;46.10;;;2.30;99.20;;;;;;4419581;32;20212;-63
2021/03/24 04:03:41;;;;;;;96.33;46.30;;;2.30;99.20;;;;;;4417535;32;20195;-62
2021/03/24 04:06:13;;;;;;;98.40;45.87;;;2.20;99.20;;;;;;4413673;32;20202;-64
2021/03/24 04:08:40;;;;;;;94.00;46.13;;;2.20;99.20;;;;;;4412787;32;20172;-64
2021/03/24 04:11:10;;;;;;;95.20;46.43;;;2.20;99.20;;;;;;4416120;32;20220;-63
2021/03/24 04:13:41;;;;;;;89.17;45.27;;;2.20;99.20;;;;;;4416630;32;20208;-63
2021/03/24 04:16:07;;;;;;;93.57;47.63;;;2.20;99.20;;;;;;4419337;32;20545;-63
2021/03/24 04:18:39;;;;;;;97.10;46.10;;;2.20;99.20;;;;;;4409682;32;20531;-63
2021/03/24 04:21:07;;;;;;;93.13;48.37;;;2.20;99.30;;;;;;4414634;32;20239;-63
2021/03/24 04:23:38;;;;;;;98.33;47.27;;;2.20;99.30;;;;;;4405631;32;20238;-63
2021/03/24 04:26:09;;;;;;;97.13;48.13;;;2.20;99.30;;;;;;4413833;32;20333;-63
2021/03/24 04:28:39;;;;;;;97.63;49.70;;;2.20;99.40;;;;;;4411819;32;20222;-63
2021/03/24 04:31:08;;;;;;;102.33;49.43;;;2.20;99.40;;;;;;4417690;32;20266;-63
2021/03/24 04:33:35;;;;;;;98.67;48.87;;;2.20;99.40;;;;;;4415665;32;20237;-63
2021/03/24 04:36:12;;;;;;;100.90;49.57;;;2.20;99.40;;;;;;4417300;32;20636;-63
2021/03/24 04:38:45;;;;;;;102.67;51.67;;;2.20;99.50;;;;;;4409206;32;20245;-63
2021/03/24 04:41:16;;;;;;;106.37;52.77;;;2.30;99.60;;;;;;4402475;32;20168;-64
2021/03/24 04:43:46;;;;;;;103.60;51.47;;;2.30;99.60;;;;;;4406666;32;20230;-63
2021/03/24 04:46:18;;;;;;;108.00;51.70;;;2.30;99.60;;;;;;4409659;32;20551;-63
2021/03/24 04:48:48;;;;;;;101.50;53.07;;;2.40;99.60;;;;;;4382285;32;20210;-63
2021/03/24 04:51:19;;;;;;;110.27;53.53;;;2.40;99.60;;;;;;4380669;32;20299;-63
2021/03/24 04:53:51;;;;;;;102.07;52.60;;;2.40;99.60;;;;;;4381400;32;20265;-63
2021/03/24 04:56:20;;;;;;;105.00;52.00;;;2.40;99.80;;;;;;4382851;32;20215;-63
2021/03/24 04:58:51;;;;;;;112.37;54.20;;;2.40;99.60;;;;;;4391157;32;20222;-63
2021/03/24 05:01:23;;;;;;;99.73;51.87;;;2.40;99.50;;;;;;4391537;32;20204;-64
2021/03/24 05:03:54;;;;;;;97.17;48.90;;;2.40;99.50;;;;;;4393622;32;20228;-63
2021/03/24 05:06:27;;;;;;;100.50;50.63;;;2.40;99.40;;;;;;4390248;32;20214;-63
2021/03/24 05:08:54;;;;;;;109.17;53.80;;;2.30;99.40;;;;;;4391367;32;20207;-63
2021/03/24 05:11:26;;;;;;;113.50;54.33;;;2.30;99.40;;;;;;4389612;32;20206;-63
2021/03/24 05:14:04;;;;;;;103.57;50.30;;;2.30;99.40;;;;;;4393569;32;20216;-63
2021/03/24 05:16:34;;;;;;;102.80;51.60;;;2.30;99.50;;;;;;4391599;32;20186;-63
2021/03/24 05:19:01;;;;;;;107.17;53.07;;;2.30;99.60;;;;;;4391707;32;20233;-62
2021/03/24 05:22:00;;;;;;;110.87;53.97;;;2.30;99.60;;;;;;4391910;32;20156;-63
2021/03/24 05:24:30;;;;;;;102.10;52.63;;;2.40;99.70;;;;;;4386442;32;20292;-63
2021/03/24 05:27:02;;;;;;;120.10;58.10;;;2.30;99.60;;;;;;4386017;32;20151;-62
2021/03/24 05:29:33;;;;;;;111.93;56.13;;;2.40;99.80;;;;;;4389121;32;20180;-62
2021/03/24 05:32:01;;;;;;;115.87;58.13;;;2.40;99.90;;;;;;4390919;32;20179;-62
2021/03/24 05:34:30;;;;;;;122.03;57.33;;;2.50;99.90;;;;;;4391178;32;20165;-62
2021/03/24 05:36:59;;;;;;;119.20;57.63;;;2.50;99.90;;;;;;4392773;32;20219;-63
2021/03/24 05:39:28;;;;;;;118.73;57.37;;;2.60;99.90;;;;;;4387746;32;20223;-63
2021/03/24 05:42:06;;;;;;;120.83;57.13;;;2.60;99.90;;;;;;4387969;32;20156;-63
2021/03/24 05:45:02;;;;;;;125.57;61.10;;;2.60;99.90;;;;;;4388875;32;20253;-63
2021/03/24 05:47:44;;;;;;;118.03;56.80;;;2.70;99.90;;;;;;4399275;32;20164;-62
2021/03/24 05:50:43;;;;;;;112.17;55.97;;;2.70;99.90;;;;;;4413916;32;20175;-62
2021/03/24 05:53:25;;;;;;;116.27;57.33;;;2.80;99.90;;;;;;4410718;32;20211;-63
2021/03/24 05:55:59;;;;;;;126.13;59.37;;;2.90;99.90;;;;;;4411071;32;20181;-63
2021/03/24 05:58:40;;;;;;;122.03;59.83;;;2.90;99.90;;;;;;4414826;32;20178;-63
2021/03/24 06:01:12;;;;;;;116.13;56.30;;;3.00;99.90;;;;;;4418755;32;20207;-63
2021/03/24 06:04:05;;;;;;;114.43;58.60;;;3.10;99.90;;;;;;4410470;32;20164;-63
2021/03/24 06:07:08;;;;;;;120.10;57.70;;;3.10;99.90;;;;;;4410595;32;20616;-64
2021/03/24 06:10:06;;;;;;;117.30;55.47;;;3.10;99.80;;;;;;4421539;32;20540;-63
2021/03/24 06:12:52;;;;;;;124.93;58.90;;;3.10;99.80;;;;;;4416265;32;20287;-63
2021/03/24 06:15:50;;;;;;;116.80;57.53;;;3.20;99.90;;;;;;4418497;32;20206;-65
2021/03/24 06:18:46;;;;;;;127.27;59.97;;;3.30;99.90;;;;;;4409212;32;20167;-63
2021/03/24 06:21:20;;;;;;;116.13;57.70;;;3.50;99.90;;;;;;4416920;32;20731;-64
2021/03/24 06:24:02;;;;;;;119.50;58.53;;;3.70;99.80;;;;;;4413456;32;20579;-63
2021/03/24 06:26:46;;;;;;;114.63;58.23;;;3.80;99.60;;;;;;4412701;32;20305;-63
2021/03/24 06:29:25;;;;;;;117.27;60.90;;;3.90;99.40;;;;;;4413147;32;20223;-63
2021/03/24 06:32:15;;;;;;;119.60;59.47;;;4.10;99.10;;;;;;4412435;32;20180;-62
2021/03/24 06:35:03;;;;;;;125.10;58.47;;;4.20;98.80;;;;;;4412190;32;20464;-62
2021/03/24 06:37:42;;;;;;;118.53;57.70;;;4.40;98.70;;;;;;4412709;32;20160;-62
2021/03/24 06:40:33;;;;;;;113.60;58.07;;;4.60;98.40;;;;;;4411174;32;20179;-62
2021/03/24 06:43:41;;;;;;;117.37;57.43;;;4.60;98.10;;;;;;4410382;32;20178;-63
2021/03/24 06:46:20;;;;;;;117.33;56.43;;;4.80;98.00;;;;;;4351812;32;20307;-63
2021/03/24 06:48:53;;;;;;;109.30;57.50;;;4.90;97.70;;;;;;4355632;33;20299;-63
2021/03/24 06:52:07;;;;;;;108.80;57.50;;;5.00;97.60;;;;;;4356246;33;20178;-63
2021/03/24 06:55:23;;;;;;;108.73;55.87;;;5.20;97.30;;;;;;4297643;33;20228;-63
2021/03/24 06:58:12;;;;;;;106.60;55.30;;;5.40;97.10;;;;;;4254199;33;20171;-63
2021/03/24 07:00:59;;;;;;;112.33;55.50;;;5.50;96.90;;;;;;4254466;33;20226;-63
2021/03/24 07:04:01;;;;;;;107.07;56.57;;;5.70;96.60;;;;;;4255637;33;20321;-63
2021/03/24 07:06:45;;;;;;;117.33;59.47;;;5.70;96.50;;;;;;4255736;33;20170;-65
2021/03/24 07:09:26;;;;;;;112.83;57.27;;;5.80;96.30;;;;;;4254834;33;20709;-63
2021/03/24 07:12:04;;;;;;;116.13;58.03;;;5.90;96.30;;;;;;4252714;33;20324;-63
2021/03/24 07:14:54;;;;;;;110.23;57.27;;;6.00;96.10;;;;;;4253621;33;20227;-63
2021/03/24 07:17:38;;;;;;;103.60;54.87;;;6.10;96.00;;;;;;4279818;33;20173;-63
2021/03/24 07:20:46;;;;;;;113.30;56.30;;;6.30;95.80;;;;;;4295604;33;20254;-64
2021/03/24 07:23:49;;;;;;;106.37;56.17;;;6.30;95.50;;;;;;4289471;33;20226;-64
2021/03/24 07:26:26;;;;;;;108.83;58.17;;;6.50;95.30;;;;;;4267929;33;20332;-64
2021/03/24 07:29:05;;;;;;;103.70;56.13;;;6.50;95.20;;;;;;4278621;33;20166;-64
2021/03/24 07:32:18;;;;;;;113.53;58.17;;;6.60;95.20;;;;;;4276793;33;20644;-62
2021/03/24 07:35:34;;;;;;;117.00;58.13;;;6.80;95.00;;;;;;4314919;33;20169;-65
2021/03/24 07:38:36;;;;;;;111.80;55.97;;;7.00;94.70;;;;;;4320176;33;20185;-64
2021/03/24 07:41:41;;;;;;;120.93;57.13;;;7.10;94.40;;;;;;4260342;33;20188;-63
2021/03/24 07:44:27;;;;;;;99.83;53.70;;;7.30;94.30;;;;;;4265957;33;20230;-66
2021/03/24 07:47:11;;;;;;;107.73;56.90;;;7.40;94.20;;;;;;4257836;33;20298;-65
2021/03/24 07:49:49;;;;;;;115.47;59.83;;;7.50;94.00;;;;;;4247710;33;20283;-65
2021/03/24 07:52:53;;;;;;;114.53;55.87;;;7.60;93.70;;;;;;4251301;33;21273;-64
2021/03/24 07:55:26;;;;;;;114.33;55.30;;;7.90;93.50;;;;;;4249033;33;20178;-64
2021/03/24 07:58:02;;;;;;;106.77;55.97;;;8.10;93.40;;;;;;4250787;33;20249;-64
2021/03/24 08:00:42;;;;;;;109.97;55.47;;;8.30;92.80;;;;;;4248552;33;20233;-67
2021/03/24 08:03:18;;;;;;;106.30;55.60;;;8.60;92.50;;;;;;4291765;33;20303;-64
2021/03/24 08:06:09;;;;;;;108.27;56.60;;;8.80;92.20;;;;;;4293985;33;20189;-68
2021/03/24 08:09:13;;;;;;;103.60;53.60;;;9.10;91.70;;;;;;4314468;33;20161;-63
2021/03/24 08:11:47;;;;;;;102.43;56.23;;;9.20;91.20;;;;;;4324827;33;20169;-65
2021/03/24 08:14:44;;;;;;;93.83;53.47;;;9.40;91.20;;;;;;4333664;33;20207;-65
2021/03/24 08:17:26;;;;;;;95.27;52.97;;;9.70;90.60;;;;;;4335505;32;20167;-65
2021/03/24 08:20:18;;;;;;;98.37;53.20;;;9.90;90.00;;;;;;4378650;32;20173;-65
2021/03/24 08:23:16;;;;;;;103.87;53.53;;;10.10;89.90;;;;;;4382145;32;20332;-65
2021/03/24 08:26:06;;;;;;;90.90;52.37;;;10.20;89.20;;;;;;4380831;32;20245;-66
2021/03/24 08:28:47;;;;;;;94.73;50.83;;;10.40;88.80;;;;;;4379946;32;20245;-66
2021/03/24 08:31:49;;;;;;;93.07;52.63;;;10.80;87.10;;;;;;4382556;32;20304;-64
2021/03/24 08:34:26;;;;;;;85.53;49.60;;;11.10;86.60;;;;;;4324678;33;20607;-66
2021/03/24 08:37:25;;;;;;;93.67;52.47;;;11.50;84.10;;;;;;4322901;33;20166;-65
2021/03/24 08:40:05;;;;;;;87.93;50.20;;;11.70;82.70;;;;;;4323538;33;20170;-64
2021/03/24 08:42:52;;;;;;;90.33;50.60;;;12.00;81.70;;;;;;4322239;33;20250;-67
2021/03/24 08:45:27;;;;;;;85.10;49.83;;;12.50;80.70;;;;;;4320625;33;20196;-66
2021/03/24 08:47:58;;;;;;;86.30;48.97;;;15.10;74.50;;;;;;4331019;33;20294;-63
2021/03/24 08:50:28;;;;;;;87.17;49.47;;;16.00;68.20;;;;;;4349521;32;20263;-68
2021/03/24 08:53:06;;;;;;;87.73;49.43;;;15.10;70.30;;;;;;4351259;32;20207;-65
2021/03/24 08:55:50;;;;;;;83.37;47.43;;;14.50;72.90;;;;;;4351717;32;20634;-64
2021/03/24 08:58:20;;;;;;;83.70;46.80;;;13.90;74.20;;;;;;4354163;32;20521;-64
2021/03/24 09:01:18;;;;;;;80.07;47.23;;;13.30;76.20;;;;;;4351883;32;20271;-68
2021/03/24 09:04:04;;;;;;;69.07;42.73;;;13.00;76.50;;;;;;4286327;33;20181;-63
2021/03/24 09:06:39;;;;;;;69.93;44.03;;;12.70;78.40;;;;;;4284367;33;20217;-65
2021/03/24 09:09:27;;;;;;;83.17;46.87;;;12.70;79.00;;;;;;4285580;33;20220;-64
2021/03/24 09:12:01;;;;;;;80.53;47.50;;;12.70;79.00;;;;;;4315303;33;20245;-64
2021/03/24 09:14:33;;;;;;;80.67;47.20;;;12.80;79.20;;;;;;4323730;33;20186;-63
2021/03/24 09:17:41;;;;;;;84.70;47.63;;;12.90;79.60;;;;;;4323127;33;20193;-65
2021/03/24 09:20:51;;;;;;;78.03;44.33;;;13.10;78.30;;;;;;4320652;33;20495;-63
2021/03/24 09:24:12;;;;;;;84.67;47.97;;;13.00;78.50;;;;;;4324961;33;20233;-66
2021/03/24 09:27:08;;;;;;;80.67;46.07;;;12.90;78.20;;;;;;4321155;33;20537;-64
2021/03/24 09:29:54;;;;;;;81.03;46.70;;;12.80;79.10;;;;;;4325203;33;20570;-65
2021/03/24 09:32:27;;;;;;;82.90;46.80;;;12.60;79.20;;;;;;4325749;33;20597;-63
2021/03/24 09:35:03;;;;;;;82.37;47.10;;;12.60;79.90;;;;;;4321196;33;20299;-62
2021/03/24 09:37:33;;;;;;;78.50;46.87;;;12.70;79.30;;;;;;4319354;33;20251;-67
2021/03/24 09:40:02;;;;;;;78.07;46.63;;;12.80;80.10;;;;;;4335642;32;20187;-64
2021/03/24 09:42:33;;;;;;;78.37;49.20;;;12.90;79.40;;;;;;4383028;32;20174;-65
2021/03/24 09:45:14;;;;;;;76.20;46.57;;;12.90;79.40;;;;;;4377619;32;20145;-67
2021/03/24 09:47:47;;;;;;;73.40;45.47;;;12.80;79.20;;;;;;4387769;32;20159;-65
2021/03/24 09:50:31;;;;;;;76.40;42.67;;;12.90;79.50;;;;;;4408715;32;20182;-66
2021/03/24 09:53:03;;;;;;;69.17;42.63;;;13.00;79.60;;;;;;4409577;32;20179;-66
2021/03/24 09:55:38;;;;;;;70.33;40.13;;;13.20;78.70;;;;;;4412376;32;20191;-65
2021/03/24 09:58:28;;;;;;;70.20;41.00;;;13.00;78.50;;;;;;4406933;32;20238;-63
2021/03/24 10:01:03;;;;;;;65.30;39.67;;;12.90;77.70;;;;;;4403620;32;20507;-63
2021/03/24 10:03:37;;;;;;;74.73;44.17;;;12.80;78.00;;;;;;4408759;32;20559;-65
2021/03/24 10:06:06;;;;;;;69.10;42.70;;;12.90;78.00;;;;;;4408098;32;20620;-65
2021/03/24 10:08:36;;;;;;;65.50;40.93;;;13.00;78.60;;;;;;4408015;32;20268;-63
2021/03/24 10:11:07;;;;;;;75.53;41.60;;;13.20;77.60;;;;;;4409216;32;20820;-63
2021/03/24 10:13:39;;;;;;;74.13;45.00;;;13.40;76.30;;;;;;4412255;32;20233;-64
2021/03/24 10:16:22;;;;;;;76.17;44.77;;;13.90;75.80;;;;;;4409329;32;20218;-62
2021/03/24 10:18:57;;;;;;;70.90;42.00;;;14.00;75.30;;;;;;4408683;32;20155;-64
2021/03/24 10:21:27;;;;;;;68.33;40.90;;;14.00;75.10;;;;;;4409496;32;20224;-64
2021/03/24 10:23:56;;;;;;;67.30;40.83;;;13.90;74.40;;;;;;4410071;32;20653;-64
2021/03/24 10:26:26;;;;;;;72.03;42.10;;;13.50;76.10;;;;;;4409138;32;20162;-65
2021/03/24 10:28:55;;;;;;;71.13;42.00;;;13.70;75.80;;;;;;4407832;32;20231;-67
2021/03/24 10:31:27;;;;;;;71.53;42.83;;;13.40;75.60;;;;;;4409756;32;20233;-67
2021/03/24 10:33:58;;;;;;;74.93;44.03;;;13.40;76.90;;;;;;4405970;32;20197;-66
2021/03/24 10:36:29;;;;;;;77.47;44.90;;;13.30;76.40;;;;;;4391298;32;20551;-65
2021/03/24 10:39:05;;;;;;;72.40;43.33;;;13.30;76.70;;;;;;4395394;32;20203;-67
2021/03/24 10:41:44;;;;;;;78.10;42.87;;;13.30;77.60;;;;;;4411072;32;20167;-66
2021/03/24 10:44:17;;;;;;;76.80;45.47;;;13.50;77.10;;;;;;4408350;32;20216;-66
2021/03/24 10:47:05;;;;;;;77.10;45.60;;;13.70;75.70;;;;;;4410088;32;20287;-65
2021/03/24 10:49:38;;;;;;;69.93;42.47;;;13.80;76.00;;;;;;4409275;32;20233;-67
2021/03/24 10:52:13;;;;;;;79.70;45.10;;;13.80;75.60;;;;;;4408680;32;20520;-64
2021/03/24 10:54:40;;;;;;;69.07;40.90;;;13.80;75.20;;;;;;4411995;32;20529;-67
2021/03/24 10:57:25;;;;;;;70.13;41.20;;;13.90;74.90;;;;;;4411488;32;20567;-66
2021/03/24 11:00:01;;;;;;;72.20;43.20;;;13.80;74.40;;;;;;4413703;32;20234;-65
2021/03/24 11:02:48;;;;;;;71.07;41.70;;;13.80;74.80;;;;;;4411148;32;20167;-66
2021/03/24 11:05:22;;;;;;;69.77;39.23;;;13.80;75.00;;;;;;4411760;32;20209;-65
2021/03/24 11:07:53;;;;;;;61.20;37.30;;;13.70;73.50;;;;;;4405407;32;20602;-67
2021/03/24 11:10:42;;;;;;;64.47;38.60;;;13.80;74.90;;;;;;4407499;32;20166;-68
2021/03/24 11:13:17;;;;;;;65.87;37.73;;;13.80;73.70;;;;;;4410009;32;20171;-65
2021/03/24 11:15:53;;;;;;;71.57;39.53;;;13.90;73.60;;;;;;4406824;32;20154;-67
2021/03/24 11:18:25;;;;;;;62.13;36.07;;;13.90;73.10;;;;;;4408446;32;20179;-66
2021/03/24 11:20:55;;;;;;;56.80;36.53;;;13.90;73.50;;;;;;4405907;32;20279;-66
2021/03/24 11:23:26;;;;;;;60.10;36.00;;;13.90;72.00;;;;;;4407930;32;20259;-67
2021/03/24 11:25:57;;;;;;;59.57;36.63;;;13.90;73.50;;;;;;4409430;32;20226;-64
2021/03/24 11:28:28;;;;;;;61.57;34.90;;;14.00;73.60;;;;;;4403801;32;20155;-65
2021/03/24 11:31:05;;;;;;;58.33;34.40;;;13.90;72.90;;;;;;4410504;32;20234;-64
2021/03/24 11:33:38;;;;;;;66.77;35.10;;;14.00;72.70;;;;;;4408081;32;20182;-65
2021/03/24 11:36:10;;;;;;;60.53;34.47;;;14.00;72.50;;;;;;4408374;32;20222;-67
2021/03/24 11:38:42;;;;;;;59.20;35.00;;;14.00;73.80;;;;;;4409920;32;20291;-65
2021/03/24 11:41:12;;;;;;;58.83;33.73;;;13.90;73.30;;;;;;4408308;32;20159;-66
2021/03/24 11:43:41;;;;;;;62.17;35.80;;;13.90;73.70;;;;;;4406924;32;20254;-67
2021/03/24 11:46:22;;;;;;;51.93;31.83;;;14.00;73.00;;;;;;4410354;32;20229;-66
2021/03/24 11:49:28;;;;;;;58.50;32.60;;;13.90;72.30;;;;;;4408814;32;20167;-67
2021/03/24 11:52:18;;;;;;;58.80;32.77;;;13.80;72.40;;;;;;4409159;32;20560;-65
2021/03/24 11:55:00;;;;;;;56.97;32.13;;;13.70;72.20;;;;;;4407611;32;20230;-64
2021/03/24 11:57:52;;;;;;;55.83;32.97;;;13.70;73.60;;;;;;4404621;32;20194;-66
2021/03/24 12:00:39;;;;;;;52.57;29.67;;;13.90;72.80;;;;;;4345498;32;20168;-66
2021/03/24 12:03:35;;;;;;;50.27;30.20;;;14.00;72.30;;;;;;4349277;32;20173;-68
2021/03/24 12:06:04;;;;;;;53.43;30.13;;;14.20;71.80;;;;;;4349236;33;20183;-67
2021/03/24 12:08:45;;;;;;;49.43;30.53;;;14.10;72.10;;;;;;4347853;33;20179;-67
2021/03/24 12:11:24;;;;;;;52.10;30.60;;;14.20;71.60;;;;;;4346678;33;20243;-65
2021/03/24 12:14:11;;;;;;;50.17;27.83;;;14.30;72.30;;;;;;4346286;33;20272;-66
2021/03/24 12:16:46;;;;;;;47.43;27.97;;;14.20;69.90;;;;;;4349633;32;21234;-65
2021/03/24 12:19:30;;;;;;;49.50;29.03;;;14.10;70.80;;;;;;4348801;33;20184;-66
2021/03/24 12:21:59;;;;;;;51.67;29.63;;;14.20;71.90;;;;;;4348216;33;20220;-66
2021/03/24 12:24:32;;;;;;;52.07;30.23;;;14.10;71.60;;;;;;4345356;33;20262;-66
2021/03/24 12:27:09;;;;;;;55.03;30.43;;;14.20;71.80;;;;;;4345535;32;20661;-66
2021/03/24 12:29:36;;;;;;;44.30;27.57;;;14.20;71.60;;;;;;4343289;33;20720;-67
2021/03/24 12:32:08;;;;;;;47.50;29.27;;;14.30;71.20;;;;;;4345266;33;20570;-67
2021/03/24 12:34:42;;;;;;;52.57;27.70;;;14.30;71.10;;;;;;4342676;33;20173;-66
2021/03/24 12:37:24;;;;;;;44.07;26.43;;;14.40;71.40;;;;;;4375745;32;20167;-66
2021/03/24 12:39:53;;;;;;;43.50;27.57;;;14.50;71.00;;;;;;4409417;32;20210;-65
2021/03/24 12:42:26;;;;;;;40.13;25.40;;;14.50;70.50;;;;;;4408590;32;20175;-65
2021/03/24 12:44:56;;;;;;;49.13;27.20;;;14.60;70.50;;;;;;4408399;32;20226;-67
2021/03/24 12:47:34;;;;;;;46.23;26.03;;;14.60;70.00;;;;;;4409009;32;20316;-65
2021/03/24 12:50:22;;;;;;;43.50;25.07;;;14.60;69.90;;;;;;4412327;32;20151;-66
2021/03/24 12:52:55;;;;;;;46.47;25.73;;;14.40;69.90;;;;;;4405218;32;20562;-67
2021/03/24 12:55:22;;;;;;;43.40;25.83;;;14.30;70.70;;;;;;4409393;32;20272;-68
2021/03/24 12:57:56;;;;;;;46.37;26.67;;;14.40;71.20;;;;;;4404228;32;20592;-68
2021/03/24 13:00:35;;;;;;;44.20;26.60;;;14.60;70.70;;;;;;4408756;32;20264;-70
2021/03/24 13:03:36;;;;;;;40.80;25.23;;;14.80;69.50;;;;;;4410110;32;20180;-65
2021/03/24 13:06:14;;;;;;;45.23;25.30;;;14.80;69.20;;;;;;4363152;32;20176;-67
2021/03/24 13:08:54;;;;;;;34.93;23.50;;;14.80;69.70;;;;;;4366553;32;20171;-66
2021/03/24 13:11:30;;;;;;;38.57;24.10;;;15.10;68.70;;;;;;4361825;32;20164;-64
2021/03/24 13:14:07;;;;;;;34.93;22.10;;;15.10;68.40;;;;;;4366282;32;20210;-69
2021/03/24 13:16:39;;;;;;;36.77;21.50;;;15.10;68.00;;;;;;4363519;32;20202;-69
2021/03/24 13:19:12;;;;;;;33.43;20.63;;;15.10;67.70;;;;;;4360530;32;20685;-68